sensor_id;sensor_type;location;lat;lon;timestamp;pressure;altitude;pressure_sealevel;temperature;humidity
19112;BME280;9688;51.906;8.376;2023-02-10T00:00:16;102585.41;;;5.50;77.82
19112;BME280;9688;51.906;8.376;2023-02-10T00:03:04;102585.41;;;5.51;77.37
19112;BME280;9688;51.906;8.376;2023-02-10T00:05:50;102588.94;;;5.52;76.89
19112;BME280;9688;51.906;8.376;2023-02-10T00:08:38;102588.03;;;5.51;77.23
19112;BME280;9688;51.906;8.376;2023-02-10T00:11:26;102602.06;;;5.53;78.19
19112;BME280;9688;51.906;8.376;2023-02-10T00:14:27;102593.41;;;5.57;77.69
19112;BME280;9688;51.906;8.376;2023-02-10T00:17:13;102596.03;;;5.57;76.93
19112;BME280;9688;51.906;8.376;2023-02-10T00:20:10;102596.88;;;5.56;78.17
19112;BME280;9688;51.906;8.376;2023-02-10T00:23:00;102599.53;;;5.58;77.99
19112;BME280;9688;51.906;8.376;2023-02-10T00:25:45;102592.50;;;5.57;77.92
19112;BME280;9688;51.906;8.376;2023-02-10T00:28:32;102596.88;;;5.56;77.76
19112;BME280;9688;51.906;8.376;2023-02-10T00:31:19;102598.59;;;5.56;78.58
19112;BME280;9688;51.906;8.376;2023-02-10T00:34:05;102594.19;;;5.53;78.79
19112;BME280;9688;51.906;8.376;2023-02-10T00:36:53;102594.19;;;5.53;78.50
19112;BME280;9688;51.906;8.376;2023-02-10T00:39:39;102595.13;;;5.55;78.54
19112;BME280;9688;51.906;8.376;2023-02-10T00:42:25;102593.41;;;5.59;78.04
19112;BME280;9688;51.906;8.376;2023-02-10T00:45:11;102599.53;;;5.58;78.09
19112;BME280;9688;51.906;8.376;2023-02-10T00:47:57;102599.53;;;5.59;78.88
19112;BME280;9688;51.906;8.376;2023-02-10T00:50:43;102604.81;;;5.61;79.29
19112;BME280;9688;51.906;8.376;2023-02-10T00:53:31;102606.56;;;5.62;78.73
19112;BME280;9688;51.906;8.376;2023-02-10T00:56:17;102610.81;;;5.54;79.08
19112;BME280;9688;51.906;8.376;2023-02-10T00:59:04;102613.47;;;5.57;79.14
19112;BME280;9688;51.906;8.376;2023-02-10T01:01:50;102610.94;;;5.62;79.44
19112;BME280;9688;51.906;8.376;2023-02-10T01:04:37;102607.53;;;5.69;79.27
19112;BME280;9688;51.906;8.376;2023-02-10T01:07:23;102618.03;;;5.70;79.55
19112;BME280;9688;51.906;8.376;2023-02-10T01:10:11;102616.34;;;5.72;79.50
19112;BME280;9688;51.906;8.376;2023-02-10T01:13:00;102615.53;;;5.76;79.96
19112;BME280;9688;51.906;8.376;2023-02-10T01:15:49;102619.06;;;5.80;79.26
19112;BME280;9688;51.906;8.376;2023-02-10T01:18:35;102616.44;;;5.81;79.89
19112;BME280;9688;51.906;8.376;2023-02-10T01:21:21;102621.69;;;5.80;79.83
19112;BME280;9688;51.906;8.376;2023-02-10T01:24:07;102626.91;;;5.78;80.22
19112;BME280;9688;51.906;8.376;2023-02-10T01:26:54;102621.63;;;5.75;79.88
19112;BME280;9688;51.906;8.376;2023-02-10T01:29:40;102625.97;;;5.73;80.11
19112;BME280;9688;51.906;8.376;2023-02-10T01:32:27;102633.81;;;5.72;80.50
19112;BME280;9688;51.906;8.376;2023-02-10T01:35:13;102635.56;;;5.71;80.08
19112;BME280;9688;51.906;8.376;2023-02-10T01:38:00;102639.03;;;5.69;80.67
19112;BME280;9688;51.906;8.376;2023-02-10T01:40:47;102634.47;;;5.57;80.18
19112;BME280;9688;51.906;8.376;2023-02-10T01:43:58;102637.84;;;5.47;81.16
19112;BME280;9688;51.906;8.376;2023-02-10T01:46:44;102630.00;;;5.50;80.80
19112;BME280;9688;51.906;8.376;2023-02-10T01:49:34;102638.84;;;5.55;81.00
19112;BME280;9688;51.906;8.376;2023-02-10T01:52:26;102635.38;;;5.57;80.68
19112;BME280;9688;51.906;8.376;2023-02-10T01:55:17;102626.59;;;5.57;81.30
19112;BME280;9688;51.906;8.376;2023-02-10T01:58:06;102626.63;;;5.58;81.06
19112;BME280;9688;51.906;8.376;2023-02-10T02:00:55;102623.97;;;5.57;81.55
19112;BME280;9688;51.906;8.376;2023-02-10T02:03:41;102630.97;;;5.55;81.56
19112;BME280;9688;51.906;8.376;2023-02-10T02:06:27;102638.78;;;5.53;81.11
19112;BME280;9688;51.906;8.376;2023-02-10T02:09:15;102644.91;;;5.54;80.70
19112;BME280;9688;51.906;8.376;2023-02-10T02:12:07;102638.72;;;5.47;81.67
19112;BME280;9688;51.906;8.376;2023-02-10T02:15:01;102645.72;;;5.48;81.08
19112;BME280;9688;51.906;8.376;2023-02-10T02:17:54;102643.91;;;5.44;81.76
19112;BME280;9688;51.906;8.376;2023-02-10T02:24:32;102641.06;;;5.32;81.94
19112;BME280;9688;51.906;8.376;2023-02-10T02:27:47;102648.09;;;5.33;81.88
19112;BME280;9688;51.906;8.376;2023-02-10T02:33:58;102652.44;;;5.31;81.51
19112;BME280;9688;51.906;8.376;2023-02-10T02:36:50;102648.97;;;5.33;82.13
19112;BME280;9688;51.906;8.376;2023-02-10T02:39:40;102655.16;;;5.37;81.62
19112;BME280;9688;51.906;8.376;2023-02-10T02:42:27;102643.78;;;5.36;81.92
19112;BME280;9688;51.906;8.376;2023-02-10T02:45:17;102655.16;;;5.37;82.79
19112;BME280;9688;51.906;8.376;2023-02-10T02:48:14;102641.19;;;5.38;82.96
19112;BME280;9688;51.906;8.376;2023-02-10T02:51:12;102646.50;;;5.43;82.03
19112;BME280;9688;51.906;8.376;2023-02-10T02:54:09;102638.66;;;5.46;83.04
19112;BME280;9688;51.906;8.376;2023-02-10T02:57:03;102644.81;;;5.48;82.89
19112;BME280;9688;51.906;8.376;2023-02-10T02:59:55;102638.72;;;5.47;82.90
19112;BME280;9688;51.906;8.376;2023-02-10T03:02:44;102634.34;;;5.46;81.94
19112;BME280;9688;51.906;8.376;2023-02-10T03:05:32;102636.91;;;5.43;83.42
19112;BME280;9688;51.906;8.376;2023-02-10T03:08:20;102630.66;;;5.35;83.29
19112;BME280;9688;51.906;8.376;2023-02-10T03:11:07;102633.06;;;5.21;83.13
19112;BME280;9688;51.906;8.376;2023-02-10T03:13:53;102636.34;;;5.09;83.22
19112;BME280;9688;51.906;8.376;2023-02-10T03:16:38;102637.91;;;4.98;83.26
19112;BME280;9688;51.906;8.376;2023-02-10T03:19:25;102637.69;;;4.86;83.87
19112;BME280;9688;51.906;8.376;2023-02-10T03:22:11;102635.81;;;4.79;84.53
19112;BME280;9688;51.906;8.376;2023-02-10T03:24:58;102630.41;;;4.69;84.30
19112;BME280;9688;51.906;8.376;2023-02-10T03:27:45;102628.56;;;4.64;84.69
19112;BME280;9688;51.906;8.376;2023-02-10T03:30:31;102615.31;;;4.56;85.23
19112;BME280;9688;51.906;8.376;2023-02-10T03:33:18;102631.84;;;4.52;85.20
19112;BME280;9688;51.906;8.376;2023-02-10T03:36:05;102630.00;;;4.46;84.89
19112;BME280;9688;51.906;8.376;2023-02-10T03:38:53;102627.22;;;4.40;86.01
19112;BME280;9688;51.906;8.376;2023-02-10T03:41:41;102632.41;;;4.36;85.67
19112;BME280;9688;51.906;8.376;2023-02-10T03:44:27;102639.28;;;4.31;85.66
19112;BME280;9688;51.906;8.376;2023-02-10T03:47:13;102640.91;;;4.24;85.98
19112;BME280;9688;51.906;8.376;2023-02-10T03:49:59;102638.19;;;4.19;87.14
19112;BME280;9688;51.906;8.376;2023-02-10T03:52:45;102641.63;;;4.17;87.25
19112;BME280;9688;51.906;8.376;2023-02-10T03:55:31;102641.56;;;4.15;86.35
19112;BME280;9688;51.906;8.376;2023-02-10T03:58:19;102640.69;;;4.13;87.38
19112;BME280;9688;51.906;8.376;2023-02-10T04:01:10;102641.50;;;4.12;86.94
19112;BME280;9688;51.906;8.376;2023-02-10T04:03:57;102638.00;;;4.12;86.95
19112;BME280;9688;51.906;8.376;2023-02-10T04:06:44;102646.72;;;4.11;87.25
19112;BME280;9688;51.906;8.376;2023-02-10T04:09:33;102643.22;;;4.10;86.94
19112;BME280;9688;51.906;8.376;2023-02-10T04:12:21;102637.06;;;4.08;87.98
19112;BME280;9688;51.906;8.376;2023-02-10T04:15:09;102637.00;;;4.05;87.26
19112;BME280;9688;51.906;8.376;2023-02-10T04:17:55;102647.31;;;3.99;88.20
19112;BME280;9688;51.906;8.376;2023-02-10T04:20:41;102643.75;;;3.94;87.60
19112;BME280;9688;51.906;8.376;2023-02-10T04:23:29;102640.16;;;3.90;88.36
19112;BME280;9688;51.906;8.376;2023-02-10T04:26:15;102640.97;;;3.86;88.07
19112;BME280;9688;51.906;8.376;2023-02-10T04:29:01;102641.78;;;3.84;88.01
19112;BME280;9688;51.906;8.376;2023-02-10T04:31:50;102640.84;;;3.80;88.95
19112;BME280;9688;51.906;8.376;2023-02-10T04:34:36;102646.81;;;3.74;88.66
19112;BME280;9688;51.906;8.376;2023-02-10T04:37:22;102644.03;;;3.67;88.72
19112;BME280;9688;51.906;8.376;2023-02-10T04:40:10;102652.56;;;3.60;89.10
19112;BME280;9688;51.906;8.376;2023-02-10T04:42:56;102645.44;;;3.52;88.42
19112;BME280;9688;51.906;8.376;2023-02-10T04:45:42;102646.19;;;3.47;88.75
19112;BME280;9688;51.906;8.376;2023-02-10T04:48:30;102649.56;;;3.43;89.63
19112;BME280;9688;51.906;8.376;2023-02-10T04:51:16;102645.13;;;3.40;89.45
19112;BME280;9688;51.906;8.376;2023-02-10T04:54:02;102654.69;;;3.38;89.19
19112;BME280;9688;51.906;8.376;2023-02-10T04:56:49;102649.41;;;3.37;89.00
19112;BME280;9688;51.906;8.376;2023-02-10T04:59:35;102658.13;;;3.35;89.54
19112;BME280;9688;51.906;8.376;2023-02-10T05:02:21;102657.19;;;3.33;89.28
19112;BME280;9688;51.906;8.376;2023-02-10T05:05:10;102651.03;;;3.31;89.25
19112;BME280;9688;51.906;8.376;2023-02-10T05:07:57;102654.44;;;3.27;89.29
19112;BME280;9688;51.906;8.376;2023-02-10T05:10:43;102659.53;;;3.23;89.57
19112;BME280;9688;51.906;8.376;2023-02-10T05:13:29;102653.38;;;3.21;89.77
19112;BME280;9688;51.906;8.376;2023-02-10T05:16:15;102658.53;;;3.18;90.00
19112;BME280;9688;51.906;8.376;2023-02-10T05:19:05;102661.16;;;3.18;90.59
19112;BME280;9688;51.906;8.376;2023-02-10T05:21:52;102658.44;;;3.15;89.75
19112;BME280;9688;51.906;8.376;2023-02-10T05:24:38;102652.28;;;3.11;90.01
19112;BME280;9688;51.906;8.376;2023-02-10T05:27:25;102661.75;;;3.07;90.37
19112;BME280;9688;51.906;8.376;2023-02-10T05:30:14;102662.66;;;3.08;90.79
19112;BME280;9688;51.906;8.376;2023-02-10T05:33:01;102666.94;;;3.06;90.34
19112;BME280;9688;51.906;8.376;2023-02-10T05:35:47;102669.50;;;3.03;90.65
19112;BME280;9688;51.906;8.376;2023-02-10T05:38:35;102672.91;;;3.02;90.56
19112;BME280;9688;51.906;8.376;2023-02-10T05:41:21;102672.84;;;2.99;90.60
19112;BME280;9688;51.906;8.376;2023-02-10T05:44:07;102678.00;;;2.96;90.24
19112;BME280;9688;51.906;8.376;2023-02-10T05:46:54;102681.41;;;2.93;91.02
19112;BME280;9688;51.906;8.376;2023-02-10T05:49:40;102689.38;;;2.98;90.91
19112;BME280;9688;51.906;8.376;2023-02-10T05:52:30;102692.91;;;3.00;91.05
19112;BME280;9688;51.906;8.376;2023-02-10T05:55:18;102699.97;;;3.02;90.99
19112;BME280;9688;51.906;8.376;2023-02-10T05:58:06;102698.44;;;3.10;91.01
19112;BME280;9688;51.906;8.376;2023-02-10T06:00:53;102701.19;;;3.17;90.87
19112;BME280;9688;51.906;8.376;2023-02-10T06:03:40;102703.16;;;3.25;90.86
19112;BME280;9688;51.906;8.376;2023-02-10T06:06:26;102704.31;;;3.37;91.62
19112;BME280;9688;51.906;8.376;2023-02-10T06:09:12;102712.38;;;3.46;91.43
19112;BME280;9688;51.906;8.376;2023-02-10T06:11:59;102712.63;;;3.55;91.30
19112;BME280;9688;51.906;8.376;2023-02-10T06:14:50;102711.13;;;3.66;91.07
19112;BME280;9688;51.906;8.376;2023-02-10T06:17:36;102715.78;;;3.79;91.34
19112;BME280;9688;51.906;8.376;2023-02-10T06:20:23;102719.50;;;3.89;91.24
19112;BME280;9688;51.906;8.376;2023-02-10T06:23:10;102719.66;;;3.95;90.80
19112;BME280;9688;51.906;8.376;2023-02-10T06:25:58;102726.75;;;4.01;91.59
19112;BME280;9688;51.906;8.376;2023-02-10T06:28:46;102730.41;;;4.08;91.13
19112;BME280;9688;51.906;8.376;2023-02-10T06:31:33;102728.75;;;4.13;91.69
19112;BME280;9688;51.906;8.376;2023-02-10T06:34:19;102734.97;;;4.18;91.38
19112;BME280;9688;51.906;8.376;2023-02-10T06:37:06;102740.38;;;4.25;91.74
19112;BME280;9688;51.906;8.376;2023-02-10T06:39:53;102750.09;;;4.30;90.94
19112;BME280;9688;51.906;8.376;2023-02-10T06:42:39;102745.75;;;4.32;90.74
19112;BME280;9688;51.906;8.376;2023-02-10T06:45:33;102749.28;;;4.34;90.75
19112;BME280;9688;51.906;8.376;2023-02-10T06:48:20;102758.16;;;4.40;91.43
19112;BME280;9688;51.906;8.376;2023-02-10T06:51:06;102752.16;;;4.46;90.69
19112;BME280;9688;51.906;8.376;2023-02-10T06:53:55;102750.53;;;4.51;90.95
19112;BME280;9688;51.906;8.376;2023-02-10T06:56:44;102759.38;;;4.56;90.53
19112;BME280;9688;51.906;8.376;2023-02-10T06:59:33;102762.94;;;4.60;90.31
19112;BME280;9688;51.906;8.376;2023-02-10T07:02:21;102767.41;;;4.65;90.76
19112;BME280;9688;51.906;8.376;2023-02-10T07:05:10;102764.91;;;4.70;91.21
19112;BME280;9688;51.906;8.376;2023-02-10T07:07:57;102757.16;;;4.75;91.53
19112;BME280;9688;51.906;8.376;2023-02-10T07:10:45;102754.53;;;4.76;91.19
19112;BME280;9688;51.906;8.376;2023-02-10T07:13:36;102760.59;;;4.74;90.32
19112;BME280;9688;51.906;8.376;2023-02-10T07:16:22;102762.38;;;4.75;90.97
19112;BME280;9688;51.906;8.376;2023-02-10T07:19:13;102772.00;;;4.76;90.73
19112;BME280;9688;51.906;8.376;2023-02-10T07:22:00;102771.22;;;4.80;90.36
19112;BME280;9688;51.906;8.376;2023-02-10T07:24:52;102779.97;;;4.80;90.71
19112;BME280;9688;51.906;8.376;2023-02-10T07:27:43;102775.59;;;4.81;90.61
19112;BME280;9688;51.906;8.376;2023-02-10T07:30:32;102767.75;;;4.81;91.63
19112;BME280;9688;51.906;8.376;2023-02-10T07:33:20;102768.66;;;4.83;90.88
19112;BME280;9688;51.906;8.376;2023-02-10T07:36:10;102770.53;;;4.88;91.65
19112;BME280;9688;51.906;8.376;2023-02-10T07:38:56;102768.88;;;4.94;91.10
19112;BME280;9688;51.906;8.376;2023-02-10T07:41:46;102763.69;;;4.97;90.44
19112;BME280;9688;51.906;8.376;2023-02-10T07:44:33;102768.22;;;5.05;91.33
19112;BME280;9688;51.906;8.376;2023-02-10T07:47:20;102763.19;;;5.16;90.80
19112;BME280;9688;51.906;8.376;2023-02-10T07:50:07;102762.44;;;5.23;90.22
19112;BME280;9688;51.906;8.376;2023-02-10T07:52:55;102764.22;;;5.24;91.12
19112;BME280;9688;51.906;8.376;2023-02-10T07:55:41;102772.03;;;5.23;91.05
19112;BME280;9688;51.906;8.376;2023-02-10T07:58:27;102772.91;;;5.23;90.62
19112;BME280;9688;51.906;8.376;2023-02-10T08:01:14;102772.09;;;5.26;89.86
19112;BME280;9688;51.906;8.376;2023-02-10T08:04:00;102768.63;;;5.27;90.89
19112;BME280;9688;51.906;8.376;2023-02-10T08:06:50;102766.03;;;5.28;90.77
19112;BME280;9688;51.906;8.376;2023-02-10T08:09:38;102775.72;;;5.32;90.31
19112;BME280;9688;51.906;8.376;2023-02-10T08:12:24;102778.41;;;5.37;90.55
19112;BME280;9688;51.906;8.376;2023-02-10T08:15:12;102780.28;;;5.44;90.24
19112;BME280;9688;51.906;8.376;2023-02-10T08:18:01;102780.41;;;5.50;90.74
19112;BME280;9688;51.906;8.376;2023-02-10T08:20:47;102782.28;;;5.59;90.25
19112;BME280;9688;51.906;8.376;2023-02-10T08:23:36;102789.38;;;5.63;89.94
19112;BME280;9688;51.906;8.376;2023-02-10T08:26:24;102793.75;;;5.63;90.16
19112;BME280;9688;51.906;8.376;2023-02-10T08:29:12;102798.13;;;5.64;89.61
19112;BME280;9688;51.906;8.376;2023-02-10T08:31:59;102792.94;;;5.67;90.56
19112;BME280;9688;51.906;8.376;2023-02-10T08:34:45;102795.53;;;5.67;89.56
19112;BME280;9688;51.906;8.376;2023-02-10T08:37:32;102801.75;;;5.72;89.69
19112;BME280;9688;51.906;8.376;2023-02-10T08:40:22;102804.47;;;5.78;89.87
19112;BME280;9688;51.906;8.376;2023-02-10T08:43:13;102793.16;;;5.80;90.03
19112;BME280;9688;51.906;8.376;2023-02-10T08:46:00;102799.28;;;5.81;89.31
19112;BME280;9688;51.906;8.376;2023-02-10T08:48:47;102789.78;;;5.89;89.36
19112;BME280;9688;51.906;8.376;2023-02-10T08:51:35;102792.53;;;5.95;88.31
19112;BME280;9688;51.906;8.376;2023-02-10T08:54:23;102791.78;;;6.02;88.31
19112;BME280;9688;51.906;8.376;2023-02-10T08:57:10;102791.91;;;6.12;88.95
19112;BME280;9688;51.906;8.376;2023-02-10T09:00:06;102793.84;;;6.22;87.87
19112;BME280;9688;51.906;8.376;2023-02-10T09:02:54;102796.50;;;6.25;87.78
19112;BME280;9688;51.906;8.376;2023-02-10T09:05:40;102795.53;;;6.18;87.16
19112;BME280;9688;51.906;8.376;2023-02-10T09:08:28;102794.72;;;6.21;87.72
19112;BME280;9688;51.906;8.376;2023-02-10T09:11:15;102798.25;;;6.26;86.66
19112;BME280;9688;51.906;8.376;2023-02-10T09:14:05;102799.09;;;6.22;86.79
19112;BME280;9688;51.906;8.376;2023-02-10T09:16:56;102802.38;;;6.09;88.05
19112;BME280;9688;51.906;8.376;2023-02-10T09:19:46;102807.63;;;6.07;87.27
19112;BME280;9688;51.906;8.376;2023-02-10T09:22:35;102811.13;;;6.09;87.32
19112;BME280;9688;51.906;8.376;2023-02-10T09:25:22;102807.81;;;6.19;87.26
19112;BME280;9688;51.906;8.376;2023-02-10T09:28:08;102804.47;;;6.30;87.18
19112;BME280;9688;51.906;8.376;2023-02-10T09:30:55;102815.97;;;6.38;86.87
19112;BME280;9688;51.906;8.376;2023-02-10T09:33:42;102809.03;;;6.43;86.00
19112;BME280;9688;51.906;8.376;2023-02-10T09:36:29;102803.81;;;6.46;86.53
19112;BME280;9688;51.906;8.376;2023-02-10T09:39:16;102810.06;;;6.56;85.89
19112;BME280;9688;51.906;8.376;2023-02-10T09:42:08;102807.66;;;6.71;85.51
19112;BME280;9688;51.906;8.376;2023-02-10T09:45:01;102809.63;;;6.89;85.51
19112;BME280;9688;51.906;8.376;2023-02-10T09:47:49;102819.38;;;6.99;84.68
19112;BME280;9688;51.906;8.376;2023-02-10T09:50:47;102816.72;;;6.98;84.55
19112;BME280;9688;51.906;8.376;2023-02-10T09:53:37;102816.84;;;7.07;84.05
19112;BME280;9688;51.906;8.376;2023-02-10T09:56:26;102821.41;;;7.22;83.85
19112;BME280;9688;51.906;8.376;2023-02-10T09:59:17;102818.88;;;7.32;83.62
19112;BME280;9688;51.906;8.376;2023-02-10T10:02:13;102815.38;;;7.33;83.43
19112;BME280;9688;51.906;8.376;2023-02-10T10:05:23;102814.47;;;7.30;83.64
19112;BME280;9688;51.906;8.376;2023-02-10T10:08:23;102820.72;;;7.41;83.18
19112;BME280;9688;51.906;8.376;2023-02-10T10:11:21;102812.91;;;7.49;83.17
19112;BME280;9688;51.906;8.376;2023-02-10T10:14:16;102819.03;;;7.48;82.89
19112;BME280;9688;51.906;8.376;2023-02-10T10:17:24;102824.28;;;7.46;82.58
19112;BME280;9688;51.906;8.376;2023-02-10T10:20:31;102824.22;;;7.42;82.28
19112;BME280;9688;51.906;8.376;2023-02-10T10:23:33;102809.25;;;7.33;82.75
19112;BME280;9688;51.906;8.376;2023-02-10T10:26:48;102819.72;;;7.30;82.65
19112;BME280;9688;51.906;8.376;2023-02-10T10:29:43;102812.91;;;7.50;82.06
19112;BME280;9688;51.906;8.376;2023-02-10T10:32:42;102816.59;;;7.66;82.24
19112;BME280;9688;51.906;8.376;2023-02-10T10:35:37;102813.91;;;7.62;81.47
19112;BME280;9688;51.906;8.376;2023-02-10T10:38:31;102815.59;;;7.56;81.37
19112;BME280;9688;51.906;8.376;2023-02-10T10:41:22;102812.94;;;7.53;81.56
19112;BME280;9688;51.906;8.376;2023-02-10T10:44:12;102811.16;;;7.49;81.55
19112;BME280;9688;51.906;8.376;2023-02-10T10:47:06;102809.38;;;7.47;81.29
19112;BME280;9688;51.906;8.376;2023-02-10T10:49:59;102812.84;;;7.41;81.23
19112;BME280;9688;51.906;8.376;2023-02-10T10:52:54;102806.63;;;7.36;81.24
19112;BME280;9688;51.906;8.376;2023-02-10T10:55:46;102815.44;;;7.40;81.50
19112;BME280;9688;51.906;8.376;2023-02-10T10:58:39;102817.28;;;7.50;80.75
19112;BME280;9688;51.906;8.376;2023-02-10T11:01:36;102817.41;;;7.60;80.76
19112;BME280;9688;51.906;8.376;2023-02-10T11:04:26;102814.84;;;7.68;80.74
19112;BME280;9688;51.906;8.376;2023-02-10T11:07:18;102809.69;;;7.83;80.08
19112;BME280;9688;51.906;8.376;2023-02-10T11:10:06;102810.72;;;7.99;79.77
19112;BME280;9688;51.906;8.376;2023-02-10T11:13:17;102795.81;;;8.03;79.21
19112;BME280;9688;51.906;8.376;2023-02-10T11:16:04;102796.72;;;8.07;79.48
19112;BME280;9688;51.906;8.376;2023-02-10T11:18:53;102787.16;;;8.22;79.10
19112;BME280;9688;51.906;8.376;2023-02-10T11:21:40;102775.94;;;8.48;78.42
19112;BME280;9688;51.906;8.376;2023-02-10T11:24:31;102774.28;;;8.71;78.03
19112;BME280;9688;51.906;8.376;2023-02-10T11:27:20;102765.53;;;8.82;77.11
19112;BME280;9688;51.906;8.376;2023-02-10T11:30:25;102771.66;;;8.79;76.81
19112;BME280;9688;51.906;8.376;2023-02-10T11:33:21;102759.28;;;8.64;77.63
19112;BME280;9688;51.906;8.376;2023-02-10T11:36:10;102770.69;;;8.59;77.33
19112;BME280;9688;51.906;8.376;2023-02-10T11:39:00;102762.72;;;8.46;77.08
19112;BME280;9688;51.906;8.376;2023-02-10T11:41:46;102764.38;;;8.26;77.07
19112;BME280;9688;51.906;8.376;2023-02-10T11:44:33;102756.38;;;8.12;77.85
19112;BME280;9688;51.906;8.376;2023-02-10T11:47:21;102754.53;;;7.99;78.03
19112;BME280;9688;51.906;8.376;2023-02-10T11:50:20;102757.94;;;7.86;78.14
19112;BME280;9688;51.906;8.376;2023-02-10T11:53:17;102753.53;;;7.81;78.39
19112;BME280;9688;51.906;8.376;2023-02-10T11:56:13;102762.31;;;7.83;78.38
19112;BME280;9688;51.906;8.376;2023-02-10T11:59:05;102756.22;;;7.92;78.10
19112;BME280;9688;51.906;8.376;2023-02-10T12:01:55;102763.31;;;8.01;77.81
19112;BME280;9688;51.906;8.376;2023-02-10T12:05:11;102770.41;;;8.11;77.80
19112;BME280;9688;51.906;8.376;2023-02-10T12:08:12;102764.28;;;8.17;77.06
19112;BME280;9688;51.906;8.376;2023-02-10T12:11:08;102759.88;;;8.14;77.44
19112;BME280;9688;51.906;8.376;2023-02-10T12:14:01;102754.66;;;8.19;77.54
19112;BME280;9688;51.906;8.376;2023-02-10T12:16:58;102748.56;;;8.31;76.99
19112;BME280;9688;51.906;8.376;2023-02-10T12:20:06;102761.88;;;8.51;76.41
19112;BME280;9688;51.906;8.376;2023-02-10T12:23:31;102755.75;;;8.56;76.15
19112;BME280;9688;51.906;8.376;2023-02-10T12:26:26;102747.00;;;8.62;75.34
19112;BME280;9688;51.906;8.376;2023-02-10T12:29:29;102741.69;;;8.59;75.76
19112;BME280;9688;51.906;8.376;2023-02-10T12:32:27;102737.28;;;8.48;75.94
19112;BME280;9688;51.906;8.376;2023-02-10T12:35:26;102737.25;;;8.44;75.73
19112;BME280;9688;51.906;8.376;2023-02-10T12:38:32;102724.84;;;8.31;75.95
19112;BME280;9688;51.906;8.376;2023-02-10T12:41:33;102710.75;;;8.22;76.02
19112;BME280;9688;51.906;8.376;2023-02-10T12:44:33;102710.69;;;8.12;76.53
19112;BME280;9688;51.906;8.376;2023-02-10T12:47:32;102715.91;;;8.01;76.65
19112;BME280;9688;51.906;8.376;2023-02-10T12:50:32;102701.81;;;7.93;76.58
19112;BME280;9688;51.906;8.376;2023-02-10T12:53:23;102707.03;;;7.87;76.49
19112;BME280;9688;51.906;8.376;2023-02-10T12:56:14;102702.66;;;7.86;76.88
19112;BME280;9688;51.906;8.376;2023-02-10T12:59:11;102709.75;;;7.99;76.59
19112;BME280;9688;51.906;8.376;2023-02-10T13:02:04;102694.91;;;8.13;76.26
19112;BME280;9688;51.906;8.376;2023-02-10T13:04:58;102701.13;;;8.26;75.98
19112;BME280;9688;51.906;8.376;2023-02-10T13:07:49;102694.09;;;8.31;75.88
19112;BME280;9688;51.906;8.376;2023-02-10T13:10:39;102687.09;;;8.35;75.34
19112;BME280;9688;51.906;8.376;2023-02-10T13:13:27;102685.31;;;8.29;75.39
19112;BME280;9688;51.906;8.376;2023-02-10T13:16:18;102677.41;;;8.31;75.25
19112;BME280;9688;51.906;8.376;2023-02-10T13:19:19;102680.06;;;8.32;74.84
19112;BME280;9688;51.906;8.376;2023-02-10T13:22:16;102685.31;;;8.34;74.98
19112;BME280;9688;51.906;8.376;2023-02-10T13:25:09;102680.06;;;8.32;74.88
19112;BME280;9688;51.906;8.376;2023-02-10T13:28:04;102669.53;;;8.37;74.97
19112;BME280;9688;51.906;8.376;2023-02-10T13:31:06;102683.59;;;8.36;74.94
19112;BME280;9688;51.906;8.376;2023-02-10T13:34:04;102678.38;;;8.42;74.22
19112;BME280;9688;51.906;8.376;2023-02-10T13:37:05;102672.22;;;8.44;73.91
19112;BME280;9688;51.906;8.376;2023-02-10T13:39:53;102674.00;;;8.53;74.16
19112;BME280;9688;51.906;8.376;2023-02-10T13:42:47;102669.66;;;8.66;73.65
19112;BME280;9688;51.906;8.376;2023-02-10T13:45:36;102669.72;;;8.84;73.65
19112;BME280;9688;51.906;8.376;2023-02-10T13:48:24;102655.66;;;8.93;72.64
19112;BME280;9688;51.906;8.376;2023-02-10T13:51:16;102650.38;;;8.91;72.45
19112;BME280;9688;51.906;8.376;2023-02-10T13:54:04;102644.19;;;8.89;72.47
19112;BME280;9688;51.906;8.376;2023-02-10T13:56:53;102649.47;;;8.83;72.69
19112;BME280;9688;51.906;8.376;2023-02-10T13:59:40;102640.69;;;8.80;72.52
19112;BME280;9688;51.906;8.376;2023-02-10T14:02:29;102646.84;;;8.82;71.61
19112;BME280;9688;51.906;8.376;2023-02-10T14:05:24;102642.44;;;8.79;71.87
19112;BME280;9688;51.906;8.376;2023-02-10T14:08:25;102644.19;;;8.76;71.35
19112;BME280;9688;51.906;8.376;2023-02-10T14:11:29;102640.66;;;8.64;71.58
19112;BME280;9688;51.906;8.376;2023-02-10T14:14:20;102646.81;;;8.63;70.84
19112;BME280;9688;51.906;8.376;2023-02-10T14:17:17;102646.81;;;8.63;71.14
19112;BME280;9688;51.906;8.376;2023-02-10T14:20:20;102645.91;;;8.61;71.25
19112;BME280;9688;51.906;8.376;2023-02-10T14:23:20;102648.59;;;8.67;70.41
19112;BME280;9688;51.906;8.376;2023-02-10T14:26:15;102643.31;;;8.70;70.70
19112;BME280;9688;51.906;8.376;2023-02-10T14:29:08;102638.03;;;8.69;70.42
19112;BME280;9688;51.906;8.376;2023-02-10T14:32:00;102636.25;;;8.63;70.99
19112;BME280;9688;51.906;8.376;2023-02-10T14:34:55;102628.34;;;8.59;70.75
19112;BME280;9688;51.906;8.376;2023-02-10T14:37:50;102638.88;;;8.54;70.64
19112;BME280;9688;51.906;8.376;2023-02-10T14:40:44;102625.69;;;8.49;70.92
19112;BME280;9688;51.906;8.376;2023-02-10T14:43:42;102628.34;;;8.48;70.97
19112;BME280;9688;51.906;8.376;2023-02-10T14:46:31;102623.94;;;8.53;70.59
19112;BME280;9688;51.906;8.376;2023-02-10T14:49:20;102634.50;;;8.59;70.49
19112;BME280;9688;51.906;8.376;2023-02-10T14:52:21;102624.84;;;8.60;70.33
19112;BME280;9688;51.906;8.376;2023-02-10T14:55:28;102625.72;;;8.57;70.34
19112;BME280;9688;51.906;8.376;2023-02-10T14:58:21;102608.97;;;8.47;70.76
19112;BME280;9688;51.906;8.376;2023-02-10T15:01:14;102616.00;;;8.41;71.26
19112;BME280;9688;51.906;8.376;2023-02-10T15:04:03;102615.97;;;8.35;71.32
19112;BME280;9688;51.906;8.376;2023-02-10T15:06:49;102615.06;;;8.30;71.41
19112;BME280;9688;51.906;8.376;2023-02-10T15:09:35;102617.69;;;8.26;71.01
19112;BME280;9688;51.906;8.376;2023-02-10T15:12:24;102609.78;;;8.23;71.29
19112;BME280;9688;51.906;8.376;2023-02-10T15:15:22;102615.03;;;8.23;71.26
19112;BME280;9688;51.906;8.376;2023-02-10T15:18:13;102608.91;;;8.29;71.26
19112;BME280;9688;51.906;8.376;2023-02-10T15:21:02;102607.13;;;8.28;70.77